Marydel, Maryland
Current Conditions -  °F | °C
As of 8:58 PM on Saturday 22 Nov 2014 (Local Time) from KDOV Reporting Station
Broken Clouds Broken Clouds  
Wind Chill: 28°   Ceiling: 11000
Heat Index: 35°   Visibility: 10mi
Dew Point: 25°   Wind: 9mph
Humidity: 65%   Direction: 180°S
Pressure: 30.27"   Gusts: NA
Location:  39.11°N, 75.75°W
Report Text: KDOV 230158Z AUTO 18008KT 10SM BKN110 02/M04 A3027 RMK AO2 SLP254 T00191040
Loading
Personal Weather Stations






























Interactive Weather Map New forecast layout! Learn more

10-Day Weather Forecast

Advertisements
Track Severe Weather on mobile